Time,TemperatureF,DewpointF,PressureIn,WindDirection,WindDirectionDegrees,WindSpeedMPH,WindSpeedGustMPH,Humidity,HourlyPrecipIn,Conditions,Clouds,dailyrainin,SoftwareType,DateUTC
2017-03-26 00:05:00,43.9,42.3,30.04,NNW,341,0.0,0.0,94,0.00,,,0.00,WeatherCatV2.41B14,2017-03-26 07:05:00,
2017-03-26 00:10:00,43.8,42.2,30.04,NNW,341,0.0,0.0,94,0.00,,,0.00,WeatherCatV2.41B14,2017-03-26 07:10:00,
2017-03-26 00:15:00,43.7,42.1,30.04,NNW,341,0.0,0.0,94,0.00,,,0.00,WeatherCatV2.41B14,2017-03-26 07:15:00,
2017-03-26 00:20:00,43.7,42.1,30.03,NNW,341,0.0,0.0,94,0.00,,,0.00,WeatherCatV2.41B14,2017-03-26 07:20:00,
2017-03-26 00:25:00,43.7,42.4,30.03,NNW,341,0.0,0.0,95,0.00,,,0.00,WeatherCatV2.41B14,2017-03-26 07:25:00,
2017-03-26 00:30:00,43.7,42.4,30.03,NNW,341,0.0,0.0,95,0.00,,,0.00,WeatherCatV2.41B14,2017-03-26 07:30:00,
2017-03-26 00:35:00,43.6,42.0,30.03,NNW,341,0.0,0.0,94,0.00,,,0.00,WeatherCatV2.41B14,2017-03-26 07:35:00,
2017-03-26 00:40:00,43.6,42.0,30.03,NNW,341,0.0,0.0,94,0.00,,,0.00,WeatherCatV2.41B14,2017-03-26 07:40:00,
2017-03-26 00:50:00,43.4,42.1,30.03,NNW,341,0.0,0.0,95,0.00,,,0.00,WeatherCatV2.41B14,2017-03-26 07:50:00,
2017-03-26 00:55:00,43.4,42.1,30.03,NNW,341,0.0,0.0,95,0.00,,,0.00,WeatherCatV2.41B14,2017-03-26 07:55:00,
2017-03-26 01:00:00,43.4,42.1,30.03,NNW,341,0.0,0.0,95,0.00,,,0.00,WeatherCatV2.41B14,2017-03-26 08:00:00,
2017-03-26 01:05:00,43.5,42.4,30.03,NNW,341,0.0,0.0,96,0.00,,,0.00,WeatherCatV2.41B14,2017-03-26 08:05:00,
2017-03-26 01:10:00,43.6,42.3,30.03,NNW,341,0.0,0.0,95,0.00,,,0.00,WeatherCatV2.41B14,2017-03-26 08:10:00,
2017-03-26 01:15:00,43.6,42.5,30.03,NNW,341,0.0,0.0,96,0.00,,,0.00,WeatherCatV2.41B14,2017-03-26 08:15:00,
2017-03-26 01:20:00,43.6,42.5,30.02,NNW,341,0.0,0.0,96,0.00,,,0.00,WeatherCatV2.41B14,2017-03-26 08:20:00,
2017-03-26 01:25:00,43.5,42.2,30.02,NNW,341,0.0,0.0,95,0.00,,,0.00,WeatherCatV2.41B14,2017-03-26 08:25:00,
2017-03-26 01:30:00,43.6,42.3,30.02,NNW,341,0.0,0.0,95,0.00,,,0.00,WeatherCatV2.41B14,2017-03-26 08:30:00,
2017-03-26 01:35:00,43.6,42.3,30.02,NNW,341,0.0,0.0,95,0.00,,,0.00,WeatherCatV2.41B14,2017-03-26 08:35:00,
2017-03-26 01:40:00,43.5,42.4,30.02,NNW,341,0.0,0.0,96,0.00,,,0.00,WeatherCatV2.41B14,2017-03-26 08:40:00,
2017-03-26 01:45:00,43.5,42.4,30.01,NNW,341,0.0,0.0,96,0.00,,,0.00,WeatherCatV2.41B14,2017-03-26 08:45:00,
2017-03-26 01:51:00,43.6,42.5,30.01,NNW,341,0.0,0.0,96,0.00,,,0.00,WeatherCatV2.41B14,2017-03-26 08:51:00,
2017-03-26 01:56:00,43.4,42.3,30.01,NNW,341,0.0,0.0,96,0.00,,,0.00,WeatherCatV2.41B14,2017-03-26 08:56:00,
2017-03-26 02:01:00,43.4,42.1,30.01,NNW,341,0.0,0.0,95,0.00,,,0.00,WeatherCatV2.41B14,2017-03-26 09:01:00,
2017-03-26 02:06:00,43.3,42.0,30.01,NNW,341,0.0,0.0,95,0.00,,,0.00,WeatherCatV2.41B14,2017-03-26 09:06:00,
2017-03-26 02:11:00,43.3,42.0,30.01,NNW,341,0.0,0.0,95,0.00,,,0.00,WeatherCatV2.41B14,2017-03-26 09:11:00,
2017-03-26 02:16:00,43.2,42.1,30.01,NNW,341,0.0,0.0,96,0.00,,,0.00,WeatherCatV2.41B14,2017-03-26 09:16:00,
2017-03-26 02:21:00,43.2,41.9,30.00,NNW,341,0.0,0.0,95,0.00,,,0.00,WeatherCatV2.41B14,2017-03-26 09:21:00,
2017-03-26 02:27:00,43.1,41.8,30.00,NNW,341,0.0,0.0,95,0.00,,,0.00,WeatherCatV2.41B14,2017-03-26 09:27:00,
2017-03-26 02:32:00,43.1,41.8,29.99,NNW,341,0.0,0.0,95,0.00,,,0.00,WeatherCatV2.41B14,2017-03-26 09:32:00,
2017-03-26 02:37:00,43.0,41.7,29.99,NNW,341,0.0,0.0,95,0.00,,,0.00,WeatherCatV2.41B14,2017-03-26 09:37:00,
2017-03-26 02:42:00,42.9,41.6,29.99,NNW,341,0.0,0.0,95,0.00,,,0.00,WeatherCatV2.41B14,2017-03-26 09:42:00,
2017-03-26 02:47:00,42.9,41.6,30.00,NNW,341,0.0,0.0,95,0.00,,,0.00,WeatherCatV2.41B14,2017-03-26 09:47:00,
2017-03-26 02:52:00,42.8,41.5,29.99,NNW,341,0.0,0.0,95,0.00,,,0.00,WeatherCatV2.41B14,2017-03-26 09:52:00,
2017-03-26 02:57:00,42.8,41.5,29.99,NNW,341,0.0,0.0,95,0.00,,,0.00,WeatherCatV2.41B14,2017-03-26 09:57:00,
2017-03-26 03:02:00,42.8,41.5,29.99,NNW,341,0.0,1.0,95,0.00,,,0.00,WeatherCatV2.41B14,2017-03-26 10:02:00,
2017-03-26 03:07:00,42.7,41.4,29.99,NNW,341,0.0,1.0,95,0.00,,,0.00,WeatherCatV2.41B14,2017-03-26 10:07:00,
2017-03-26 03:12:00,42.8,41.5,29.99,NNW,341,0.0,0.0,95,0.00,,,0.00,WeatherCatV2.41B14,2017-03-26 10:12:00,
2017-03-26 03:17:00,42.8,41.5,29.98,NNW,341,0.0,0.0,95,0.00,,,0.00,WeatherCatV2.41B14,2017-03-26 10:17:00,
2017-03-26 03:22:00,42.8,41.5,29.98,NNW,341,0.0,0.0,95,0.00,,,0.00,WeatherCatV2.41B14,2017-03-26 10:22:00,
2017-03-26 03:27:00,42.8,41.5,29.98,NNW,341,0.0,0.0,95,0.00,,,0.00,WeatherCatV2.41B14,2017-03-26 10:27:00,
2017-03-26 03:32:00,42.8,41.5,29.97,NNW,341,0.0,0.0,95,0.00,,,0.00,WeatherCatV2.41B14,2017-03-26 10:32:00,
2017-03-26 03:37:00,42.8,41.5,29.97,NNW,341,0.0,0.0,95,0.00,,,0.00,WeatherCatV2.41B14,2017-03-26 10:37:00,
2017-03-26 03:42:00,42.8,41.5,29.97,NNW,341,0.0,0.0,95,0.00,,,0.00,WeatherCatV2.41B14,2017-03-26 10:42:00,
2017-03-26 03:47:00,42.8,41.5,29.97,NNW,341,0.0,0.0,95,0.00,,,0.00,WeatherCatV2.41B14,2017-03-26 10:47:00,
2017-03-26 03:52:00,42.8,41.5,29.96,NNW,341,0.0,0.0,95,0.00,,,0.00,WeatherCatV2.41B14,2017-03-26 10:52:00,
2017-03-26 03:57:00,42.8,41.5,29.96,NNW,341,0.0,0.0,95,0.00,,,0.00,WeatherCatV2.41B14,2017-03-26 10:57:00,
2017-03-26 04:02:00,42.7,41.4,29.96,NNW,341,0.0,0.0,95,0.00,,,0.00,WeatherCatV2.41B14,2017-03-26 11:02:00,
2017-03-26 04:07:00,42.7,41.4,29.96,NNW,341,0.0,0.0,95,0.00,,,0.00,WeatherCatV2.41B14,2017-03-26 11:07:00,
2017-03-26 04:18:00,42.7,41.4,29.95,NNW,341,0.0,0.0,95,0.00,,,0.00,WeatherCatV2.41B14,2017-03-26 11:18:00,
2017-03-26 04:23:00,42.7,41.4,29.95,NNW,341,0.0,0.0,95,0.00,,,0.00,WeatherCatV2.41B14,2017-03-26 11:23:00,
2017-03-26 04:28:00,42.7,41.4,29.95,NNW,341,0.0,0.0,95,0.00,,,0.00,WeatherCatV2.41B14,2017-03-26 11:28:00,
2017-03-26 04:33:00,42.6,41.3,29.94,NNW,341,0.0,1.0,95,0.00,,,0.00,WeatherCatV2.41B14,2017-03-26 11:33:00,
2017-03-26 04:38:00,42.6,41.3,29.95,NNW,341,0.0,0.0,95,0.00,,,0.00,WeatherCatV2.41B14,2017-03-26 11:38:00,
2017-03-26 04:43:00,42.7,41.4,29.95,NNW,341,0.0,0.0,95,0.00,,,0.00,WeatherCatV2.41B14,2017-03-26 11:43:00,
2017-03-26 04:48:00,42.6,41.3,29.94,NNW,341,0.0,0.0,95,0.00,,,0.00,WeatherCatV2.41B14,2017-03-26 11:48:00,
2017-03-26 04:53:00,42.6,41.5,29.94,NNW,341,0.0,0.0,96,0.00,,,0.00,WeatherCatV2.41B14,2017-03-26 11:53:00,
2017-03-26 04:58:00,42.7,41.6,29.94,NNW,341,0.0,0.0,96,0.00,,,0.00,WeatherCatV2.41B14,2017-03-26 11:58:00,
2017-03-26 05:03:00,42.7,41.6,29.94,NNW,341,0.0,0.0,96,0.00,,,0.00,WeatherCatV2.41B14,2017-03-26 12:03:00,
2017-03-26 05:08:00,42.7,41.6,29.94,NNW,341,0.0,0.0,96,0.00,,,0.00,WeatherCatV2.41B14,2017-03-26 12:08:00,
2017-03-26 05:10:00,42.7,41.6,29.94,NNW,341,0.0,0.0,96,0.00,,,0.00,WeatherCatV2.41B14,2017-03-26 12:10:00,
2017-03-26 05:15:00,42.7,41.6,29.94,NNW,341,0.0,0.0,96,0.00,,,0.00,WeatherCatV2.41B14,2017-03-26 12:15:00,
2017-03-26 05:20:00,42.7,41.6,29.94,NNW,341,0.0,0.0,96,0.00,,,0.00,WeatherCatV2.41B14,2017-03-26 12:20:00,
2017-03-26 05:25:00,42.7,41.6,29.94,NNW,341,0.0,0.0,96,0.00,,,0.01,WeatherCatV2.41B14,2017-03-26 12:25:00,
2017-03-26 05:30:00,42.6,41.5,29.94,NNW,341,0.0,0.0,96,0.10,,,0.02,WeatherCatV2.41B14,2017-03-26 12:30:00,
2017-03-26 05:35:00,42.5,41.4,29.94,NNW,341,0.0,0.0,96,0.08,,,0.02,WeatherCatV2.41B14,2017-03-26 12:35:00,
2017-03-26 05:41:00,42.5,41.4,29.94,NNW,341,0.0,0.0,96,0.06,,,0.03,WeatherCatV2.41B14,2017-03-26 12:41:00,
2017-03-26 05:46:00,42.4,41.3,29.94,NNW,341,0.0,0.0,96,0.13,,,0.04,WeatherCatV2.41B14,2017-03-26 12:46:00,
2017-03-26 05:51:00,42.3,41.2,29.93,NNW,341,0.0,0.0,96,0.11,,,0.05,WeatherCatV2.41B14,2017-03-26 12:51:00,
2017-03-26 05:56:00,42.2,41.1,29.93,NNW,341,0.0,0.0,96,0.12,,,0.06,WeatherCatV2.41B14,2017-03-26 12:56:00,
2017-03-26 06:01:00,42.2,41.1,29.93,NNW,341,0.0,0.0,96,0.09,,,0.06,WeatherCatV2.41B14,2017-03-26 13:01:00,
2017-03-26 06:06:00,42.1,41.0,29.93,NNW,341,0.0,0.0,96,0.06,,,0.07,WeatherCatV2.41B14,2017-03-26 13:06:00,
2017-03-26 06:11:00,42.1,41.0,29.93,NNW,341,0.0,0.0,96,0.06,,,0.07,WeatherCatV2.41B14,2017-03-26 13:11:00,
2017-03-26 06:16:00,42.1,41.0,29.93,NNW,341,0.0,0.0,96,0.09,,,0.08,WeatherCatV2.41B14,2017-03-26 13:16:00,
2017-03-26 06:21:00,42.0,40.9,29.93,NNW,341,0.0,0.0,96,0.06,,,0.08,WeatherCatV2.41B14,2017-03-26 13:21:00,
2017-03-26 06:26:00,41.9,40.8,29.93,NNW,341,0.0,0.0,96,0.05,,,0.09,WeatherCatV2.41B14,2017-03-26 13:26:00,
2017-03-26 06:31:00,41.9,40.8,29.93,NNW,341,0.0,0.0,96,0.09,,,0.10,WeatherCatV2.41B14,2017-03-26 13:31:00,
2017-03-26 06:36:00,41.8,40.7,29.92,NNW,341,0.0,0.0,96,0.09,,,0.10,WeatherCatV2.41B14,2017-03-26 13:36:00,
2017-03-26 06:41:00,41.8,40.7,29.92,NNW,341,0.0,0.0,96,0.06,,,0.11,WeatherCatV2.41B14,2017-03-26 13:41:00,
2017-03-26 06:46:00,41.8,40.7,29.92,NNW,341,0.0,0.0,96,0.13,,,0.12,WeatherCatV2.41B14,2017-03-26 13:46:00,
2017-03-26 06:51:00,41.8,41.0,29.92,NNW,341,0.0,0.0,97,0.10,,,0.13,WeatherCatV2.41B14,2017-03-26 13:51:00,
2017-03-26 06:56:00,41.7,40.9,29.91,NNW,341,0.0,0.0,97,0.11,,,0.14,WeatherCatV2.41B14,2017-03-26 13:56:00,
2017-03-26 07:01:00,41.7,40.9,29.91,NNW,341,0.0,0.0,97,0.11,,,0.14,WeatherCatV2.41B14,2017-03-26 14:01:00,
2017-03-26 07:06:00,41.7,40.9,29.90,NNW,341,0.0,0.0,97,0.06,,,0.14,WeatherCatV2.41B14,2017-03-26 14:06:00,
2017-03-26 07:11:00,41.6,40.8,29.90,NNW,341,0.0,0.0,97,0.05,,,0.15,WeatherCatV2.41B14,2017-03-26 14:11:00,
2017-03-26 07:16:00,41.6,40.8,29.89,NNW,341,0.0,0.0,97,0.05,,,0.15,WeatherCatV2.41B14,2017-03-26 14:16:00,
2017-03-26 07:21:00,41.6,40.8,29.89,NNW,341,0.0,0.0,97,0.04,,,0.15,WeatherCatV2.41B14,2017-03-26 14:21:00,
2017-03-26 07:27:00,41.6,40.8,29.89,NNW,341,0.0,0.0,97,0.00,,,0.15,WeatherCatV2.41B14,2017-03-26 14:27:00,
2017-03-26 07:32:00,41.7,40.9,29.88,NNW,341,0.0,0.0,97,0.00,,,0.15,WeatherCatV2.41B14,2017-03-26 14:32:00,
2017-03-26 07:37:00,41.6,40.8,29.88,NNW,341,0.0,0.0,97,0.00,,,0.15,WeatherCatV2.41B14,2017-03-26 14:37:00,
2017-03-26 07:42:00,41.6,40.8,29.88,NNW,341,0.0,0.0,97,0.00,,,0.15,WeatherCatV2.41B14,2017-03-26 14:42:00,
2017-03-26 07:47:00,41.5,40.7,29.87,NNW,341,0.0,0.0,97,0.00,,,0.16,WeatherCatV2.41B14,2017-03-26 14:47:00,
2017-03-26 07:52:00,41.5,40.7,29.87,NNW,341,0.0,0.0,97,0.00,,,0.16,WeatherCatV2.41B14,2017-03-26 14:52:00,
2017-03-26 07:57:00,41.5,40.7,29.87,NNW,341,0.0,0.0,97,0.00,,,0.16,WeatherCatV2.41B14,2017-03-26 14:57:00,
2017-03-26 08:02:00,41.5,40.7,29.86,NNW,341,0.0,0.0,97,0.00,,,0.16,WeatherCatV2.41B14,2017-03-26 15:02:00,
2017-03-26 08:07:00,41.5,40.7,29.86,NNW,341,0.0,0.0,97,0.00,,,0.16,WeatherCatV2.41B14,2017-03-26 15:07:00,
2017-03-26 08:12:00,41.5,40.7,29.86,NNW,341,0.0,0.0,97,0.00,,,0.16,WeatherCatV2.41B14,2017-03-26 15:12:00,
2017-03-26 08:17:00,41.6,40.8,29.85,NNW,341,0.0,0.0,97,0.00,,,0.16,WeatherCatV2.41B14,2017-03-26 15:17:00,
2017-03-26 08:22:00,41.6,40.8,29.85,NNW,341,0.0,0.0,97,0.00,,,0.16,WeatherCatV2.41B14,2017-03-26 15:22:00,
2017-03-26 08:27:00,41.7,40.9,29.85,NNW,341,0.0,0.0,97,0.00,,,0.16,WeatherCatV2.41B14,2017-03-26 15:27:00,
2017-03-26 08:32:00,41.8,41.0,29.85,NNW,341,0.0,0.0,97,0.00,,,0.16,WeatherCatV2.41B14,2017-03-26 15:32:00,
2017-03-26 08:37:00,41.9,41.1,29.85,NNW,341,0.0,0.0,97,0.00,,,0.16,WeatherCatV2.41B14,2017-03-26 15:37:00,
2017-03-26 08:42:00,42.0,41.2,29.85,NNW,341,0.0,0.0,97,0.00,,,0.16,WeatherCatV2.41B14,2017-03-26 15:42:00,
2017-03-26 08:47:00,42.2,41.4,29.85,NNW,341,0.0,0.0,97,0.00,,,0.16,WeatherCatV2.41B14,2017-03-26 15:47:00,
2017-03-26 08:52:00,42.3,41.5,29.84,NNW,341,0.0,0.0,97,0.00,,,0.16,WeatherCatV2.41B14,2017-03-26 15:52:00,
2017-03-26 08:57:00,42.4,41.6,29.84,NNW,341,0.0,0.0,97,0.00,,,0.16,WeatherCatV2.41B14,2017-03-26 15:57:00,
2017-03-26 09:02:00,42.5,41.7,29.84,NNW,341,0.0,0.0,97,0.00,,,0.16,WeatherCatV2.41B14,2017-03-26 16:02:00,
2017-03-26 09:13:00,42.7,41.9,29.84,NNW,341,0.0,0.0,97,0.00,,,0.16,WeatherCatV2.41B14,2017-03-26 16:13:00,
2017-03-26 09:18:00,42.8,42.3,29.84,NNW,341,0.0,0.0,98,0.00,,,0.16,WeatherCatV2.41B14,2017-03-26 16:18:00,
2017-03-26 09:23:00,42.9,42.4,29.84,NNW,341,0.0,0.0,98,0.00,,,0.16,WeatherCatV2.41B14,2017-03-26 16:23:00,
2017-03-26 09:28:00,42.9,42.4,29.84,NNW,341,0.0,0.0,98,0.00,,,0.16,WeatherCatV2.41B14,2017-03-26 16:28:00,
2017-03-26 09:33:00,43.0,42.2,29.84,NNW,341,0.0,0.0,97,0.00,,,0.16,WeatherCatV2.41B14,2017-03-26 16:33:00,
2017-03-26 09:38:00,43.1,42.3,29.83,NNW,341,0.0,0.0,97,0.00,,,0.16,WeatherCatV2.41B14,2017-03-26 16:38:00,
2017-03-26 09:43:00,43.2,42.4,29.83,NNW,341,0.0,0.0,97,0.00,,,0.17,WeatherCatV2.41B14,2017-03-26 16:43:00,
2017-03-26 09:48:00,43.3,42.8,29.84,NNW,341,0.0,0.0,98,0.00,,,0.17,WeatherCatV2.41B14,2017-03-26 16:48:00,
2017-03-26 09:53:00,43.4,42.9,29.84,NNW,341,0.0,0.0,98,0.00,,,0.17,WeatherCatV2.41B14,2017-03-26 16:53:00,
2017-03-26 09:58:00,43.5,43.0,29.83,NNW,341,0.0,0.0,98,0.00,,,0.17,WeatherCatV2.41B14,2017-03-26 16:58:00,
2017-03-26 10:03:00,43.6,43.1,29.83,NNW,341,0.0,0.0,98,0.00,,,0.17,WeatherCatV2.41B14,2017-03-26 17:03:00,
2017-03-26 10:08:00,43.8,43.3,29.83,NNW,341,0.0,0.0,98,0.00,,,0.17,WeatherCatV2.41B14,2017-03-26 17:08:00,
2017-03-26 10:13:00,44.0,43.5,29.83,NNW,341,0.0,0.0,98,0.00,,,0.17,WeatherCatV2.41B14,2017-03-26 17:13:00,
2017-03-26 10:18:00,44.2,43.7,29.83,NNW,341,0.0,0.0,98,0.00,,,0.17,WeatherCatV2.41B14,2017-03-26 17:18:00,
2017-03-26 10:23:00,44.3,43.8,29.83,NNW,341,0.0,0.0,98,0.00,,,0.17,WeatherCatV2.41B14,2017-03-26 17:23:00,
2017-03-26 10:28:00,44.5,44.0,29.82,NNW,341,0.0,0.0,98,0.00,,,0.17,WeatherCatV2.41B14,2017-03-26 17:28:00,
2017-03-26 10:33:00,44.8,44.3,29.82,NNW,341,0.0,0.0,98,0.00,,,0.17,WeatherCatV2.41B14,2017-03-26 17:33:00,
2017-03-26 10:38:00,44.9,44.4,29.82,NNW,341,0.0,0.0,98,0.00,,,0.17,WeatherCatV2.41B14,2017-03-26 17:38:00,
2017-03-26 10:43:00,45.1,44.6,29.82,NNW,341,0.0,1.0,98,0.00,,,0.17,WeatherCatV2.41B14,2017-03-26 17:43:00,
2017-03-26 10:48:00,45.2,44.7,29.82,NNW,341,1.0,1.0,98,0.00,,,0.18,WeatherCatV2.41B14,2017-03-26 17:48:00,
2017-03-26 10:53:00,45.3,44.8,29.82,NNW,341,0.0,0.0,98,0.00,,,0.18,WeatherCatV2.41B14,2017-03-26 17:53:00,
2017-03-26 10:59:00,45.4,44.9,29.82,NNW,341,0.0,0.0,98,0.00,,,0.18,WeatherCatV2.41B14,2017-03-26 17:59:00,
2017-03-26 11:04:00,45.5,45.0,29.82,NNW,341,0.0,0.0,98,0.00,,,0.18,WeatherCatV2.41B14,2017-03-26 18:04:00,
2017-03-26 11:09:00,45.6,45.1,29.82,NNW,341,0.0,0.0,98,0.00,,,0.18,WeatherCatV2.41B14,2017-03-26 18:09:00,
2017-03-26 11:14:00,45.6,45.1,29.82,NNW,341,0.0,0.0,98,0.00,,,0.18,WeatherCatV2.41B14,2017-03-26 18:14:00,
2017-03-26 11:19:00,45.6,45.1,29.82,NNW,341,0.0,1.0,98,0.00,,,0.18,WeatherCatV2.41B14,2017-03-26 18:19:00,
2017-03-26 11:24:00,45.6,45.1,29.81,NNW,341,0.0,0.0,98,0.00,,,0.18,WeatherCatV2.41B14,2017-03-26 18:24:00,
2017-03-26 11:29:00,45.7,45.2,29.82,NNW,341,0.0,0.0,98,0.00,,,0.19,WeatherCatV2.41B14,2017-03-26 18:29:00,
2017-03-26 11:34:00,45.7,45.2,29.81,NNW,341,0.0,0.0,98,0.00,,,0.19,WeatherCatV2.41B14,2017-03-26 18:34:00,
2017-03-26 11:39:00,45.8,45.3,29.81,NNW,341,0.0,0.0,98,0.00,,,0.19,WeatherCatV2.41B14,2017-03-26 18:39:00,
2017-03-26 11:44:00,45.9,45.4,29.81,NNW,341,0.0,0.0,98,0.00,,,0.19,WeatherCatV2.41B14,2017-03-26 18:44:00,
2017-03-26 11:49:00,46.0,45.2,29.81,NNW,341,0.0,0.0,97,0.00,,,0.19,WeatherCatV2.41B14,2017-03-26 18:49:00,
2017-03-26 11:54:00,46.3,45.8,29.81,NNW,341,0.0,0.0,98,0.00,,,0.19,WeatherCatV2.41B14,2017-03-26 18:54:00,
2017-03-26 11:59:00,46.6,46.1,29.81,NNW,341,0.0,0.0,98,0.00,,,0.20,WeatherCatV2.41B14,2017-03-26 18:59:00,
2017-03-26 12:04:00,46.8,46.3,29.81,NNW,341,0.0,0.0,98,0.00,,,0.20,WeatherCatV2.41B14,2017-03-26 19:04:00,
2017-03-26 12:09:00,47.0,46.5,29.80,NNW,341,0.0,0.0,98,0.00,,,0.20,WeatherCatV2.41B14,2017-03-26 19:09:00,
2017-03-26 12:14:00,47.2,46.7,29.80,NNW,341,0.0,0.0,98,0.00,,,0.20,WeatherCatV2.41B14,2017-03-26 19:14:00,
2017-03-26 12:19:00,47.3,46.8,29.80,NNW,341,0.0,0.0,98,0.00,,,0.20,WeatherCatV2.41B14,2017-03-26 19:19:00,
2017-03-26 12:24:00,47.4,46.9,29.80,NNW,341,0.0,0.0,98,0.00,,,0.20,WeatherCatV2.41B14,2017-03-26 19:24:00,
2017-03-26 12:29:00,47.5,47.0,29.80,NNW,341,0.0,0.0,98,0.00,,,0.20,WeatherCatV2.41B14,2017-03-26 19:29:00,
2017-03-26 12:34:00,47.6,47.1,29.80,NNW,341,0.0,0.0,98,0.00,,,0.20,WeatherCatV2.41B14,2017-03-26 19:34:00,
2017-03-26 12:39:00,47.7,47.2,29.80,NNW,341,0.0,0.0,98,0.00,,,0.20,WeatherCatV2.41B14,2017-03-26 19:39:00,
2017-03-26 12:44:00,47.8,47.3,29.80,NNW,341,0.0,0.0,98,0.00,,,0.20,WeatherCatV2.41B14,2017-03-26 19:44:00,
2017-03-26 12:49:00,47.9,47.1,29.80,NNW,341,0.0,0.0,97,0.00,,,0.20,WeatherCatV2.41B14,2017-03-26 19:49:00,
2017-03-26 12:55:00,48.0,47.5,29.81,NNW,341,0.0,0.0,98,0.00,,,0.20,WeatherCatV2.41B14,2017-03-26 19:55:00,
2017-03-26 13:00:00,48.2,47.7,29.81,NNW,341,0.0,0.0,98,0.00,,,0.20,WeatherCatV2.41B14,2017-03-26 20:00:00,
2017-03-26 13:05:00,48.2,47.7,29.80,NNW,341,0.0,0.0,98,0.00,,,0.20,WeatherCatV2.41B14,2017-03-26 20:05:00,
2017-03-26 13:10:00,48.2,47.4,29.80,NNW,341,0.0,0.0,97,0.00,,,0.20,WeatherCatV2.41B14,2017-03-26 20:10:00,
2017-03-26 13:15:00,48.3,47.5,29.80,NNW,341,0.0,0.0,97,0.00,,,0.20,WeatherCatV2.41B14,2017-03-26 20:15:00,
2017-03-26 13:20:00,48.4,47.6,29.80,NNW,341,0.0,0.0,97,0.00,,,0.20,WeatherCatV2.41B14,2017-03-26 20:20:00,
2017-03-26 13:25:00,48.4,47.6,29.80,NNW,341,0.0,0.0,97,0.00,,,0.21,WeatherCatV2.41B14,2017-03-26 20:25:00,
2017-03-26 13:30:00,48.3,47.5,29.81,NW,325,0.0,0.0,97,0.00,,,0.21,WeatherCatV2.41B14,2017-03-26 20:30:00,
2017-03-26 13:35:00,48.3,47.5,29.80,NW,326,0.0,1.0,97,0.05,,,0.22,WeatherCatV2.41B14,2017-03-26 20:35:00,
2017-03-26 13:40:00,48.3,47.5,29.81,NW,326,0.0,1.0,97,0.05,,,0.22,WeatherCatV2.41B14,2017-03-26 20:40:00,
2017-03-26 13:45:00,48.5,47.7,29.81,NW,326,0.0,0.0,97,0.05,,,0.22,WeatherCatV2.41B14,2017-03-26 20:45:00,
2017-03-26 13:50:00,48.7,47.9,29.81,NW,326,0.0,0.0,97,0.04,,,0.22,WeatherCatV2.41B14,2017-03-26 20:50:00,
2017-03-26 13:55:00,48.8,48.0,29.81,NNW,327,0.0,0.0,97,0.00,,,0.22,WeatherCatV2.41B14,2017-03-26 20:55:00,
2017-03-26 14:01:00,49.0,48.2,29.81,NW,326,0.0,0.0,97,0.00,,,0.22,WeatherCatV2.41B14,2017-03-26 21:01:00,
2017-03-26 14:06:00,49.0,48.2,29.81,NNW,327,0.0,0.0,97,0.00,,,0.22,WeatherCatV2.41B14,2017-03-26 21:06:00,
2017-03-26 14:11:00,49.1,48.3,29.81,SW,225,0.0,0.0,97,0.00,,,0.22,WeatherCatV2.41B14,2017-03-26 21:11:00,
2017-03-26 14:13:00,49.2,48.4,29.81,WNW,285,0.0,1.0,97,0.00,,,0.22,WeatherCatV2.41B14,2017-03-26 21:13:00,
2017-03-26 14:18:00,49.3,48.5,29.81,WNW,285,0.0,0.0,97,0.00,,,0.22,WeatherCatV2.41B14,2017-03-26 21:18:00,
2017-03-26 14:23:00,49.5,48.7,29.81,WNW,285,0.0,0.0,97,0.00,,,0.22,WeatherCatV2.41B14,2017-03-26 21:23:00,
2017-03-26 14:28:00,49.6,48.8,29.81,WNW,285,0.0,0.0,97,0.00,,,0.22,WeatherCatV2.41B14,2017-03-26 21:28:00,
2017-03-26 14:33:00,49.7,48.9,29.81,WNW,285,0.0,0.0,97,0.00,,,0.22,WeatherCatV2.41B14,2017-03-26 21:33:00,
2017-03-26 14:38:00,49.8,49.0,29.80,WNW,285,0.0,1.0,97,0.00,,,0.22,WeatherCatV2.41B14,2017-03-26 21:38:00,
2017-03-26 14:43:00,49.7,48.9,29.80,WNW,294,0.0,2.0,97,0.00,,,0.22,WeatherCatV2.41B14,2017-03-26 21:43:00,
2017-03-26 14:48:00,49.8,49.0,29.81,WNW,294,0.0,0.0,97,0.00,,,0.22,WeatherCatV2.41B14,2017-03-26 21:48:00,
2017-03-26 14:53:00,50.0,49.2,29.81,WNW,294,0.0,1.0,97,0.00,,,0.22,WeatherCatV2.41B14,2017-03-26 21:53:00,
2017-03-26 14:58:00,50.1,49.3,29.81,NNE,18,0.0,0.0,97,0.00,,,0.22,WeatherCatV2.41B14,2017-03-26 21:58:00,
2017-03-26 15:03:00,50.3,49.5,29.81,NNE,18,0.0,0.0,97,0.00,,,0.22,WeatherCatV2.41B14,2017-03-26 22:03:00,
2017-03-26 15:08:00,50.4,49.6,29.81,NW,324,0.0,1.0,97,0.00,,,0.22,WeatherCatV2.41B14,2017-03-26 22:08:00,
2017-03-26 15:13:00,50.4,49.6,29.81,NW,324,0.0,0.0,97,0.00,,,0.22,WeatherCatV2.41B14,2017-03-26 22:13:00,
2017-03-26 15:18:00,50.5,49.7,29.81,NW,313,1.0,1.0,97,0.00,,,0.22,WeatherCatV2.41B14,2017-03-26 22:18:00,
2017-03-26 15:23:00,50.5,49.7,29.81,NNW,331,0.0,0.0,97,0.00,,,0.22,WeatherCatV2.41B14,2017-03-26 22:23:00,
2017-03-26 15:28:00,50.5,49.4,29.82,NNW,331,0.0,0.0,96,0.00,,,0.22,WeatherCatV2.41B14,2017-03-26 22:28:00,
2017-03-26 15:33:00,50.4,49.3,29.82,NNW,331,0.0,0.0,96,0.00,,,0.22,WeatherCatV2.41B14,2017-03-26 22:33:00,
2017-03-26 15:38:00,50.2,49.1,29.82,NNW,331,0.0,0.0,96,0.00,,,0.22,WeatherCatV2.41B14,2017-03-26 22:38:00,
2017-03-26 15:43:00,50.1,48.7,29.82,NNW,341,0.0,0.0,95,0.00,,,0.23,WeatherCatV2.41B14,2017-03-26 22:43:00,
2017-03-26 15:48:00,50.0,48.9,29.82,NNW,341,0.0,0.0,96,0.00,,,0.23,WeatherCatV2.41B14,2017-03-26 22:48:00,
2017-03-26 15:53:00,50.1,49.0,29.83,NNW,341,0.0,0.0,96,0.00,,,0.23,WeatherCatV2.41B14,2017-03-26 22:53:00,
2017-03-26 15:58:00,50.1,49.0,29.83,NNW,341,0.0,0.0,96,0.00,,,0.23,WeatherCatV2.41B14,2017-03-26 22:58:00,
2017-03-26 16:03:00,50.1,49.0,29.83,NNW,341,0.0,0.0,96,0.00,,,0.23,WeatherCatV2.41B14,2017-03-26 23:03:00,
2017-03-26 16:09:00,50.0,48.9,29.83,NNW,341,0.0,0.0,96,0.00,,,0.23,WeatherCatV2.41B14,2017-03-26 23:09:00,
2017-03-26 16:14:00,50.0,48.9,29.83,North,355,1.0,1.0,96,0.00,,,0.24,WeatherCatV2.41B14,2017-03-26 23:14:00,
2017-03-26 16:19:00,49.9,48.8,29.84,NNW,335,0.0,2.0,96,0.19,,,0.26,WeatherCatV2.41B14,2017-03-26 23:19:00,
2017-03-26 16:24:00,49.9,48.8,29.84,NNW,335,0.0,0.0,96,0.10,,,0.26,WeatherCatV2.41B14,2017-03-26 23:24:00,
2017-03-26 16:29:00,49.8,49.0,29.84,NNW,335,0.0,0.0,97,0.09,,,0.27,WeatherCatV2.41B14,2017-03-26 23:29:00,
2017-03-26 16:34:00,49.8,49.0,29.84,NNW,335,0.0,0.0,97,0.11,,,0.28,WeatherCatV2.41B14,2017-03-26 23:34:00,
2017-03-26 16:39:00,49.7,48.9,29.84,NNW,335,0.0,0.0,97,0.17,,,0.29,WeatherCatV2.41B14,2017-03-26 23:39:00,
2017-03-26 16:44:00,49.7,48.9,29.84,NNW,335,0.0,0.0,97,0.11,,,0.30,WeatherCatV2.41B14,2017-03-26 23:44:00,
2017-03-26 16:49:00,49.7,48.9,29.84,NNW,335,0.0,0.0,97,0.07,,,0.31,WeatherCatV2.41B14,2017-03-26 23:49:00,
2017-03-26 16:54:00,49.7,48.9,29.84,NNW,335,0.0,0.0,97,0.07,,,0.31,WeatherCatV2.41B14,2017-03-26 23:54:00,
2017-03-26 16:59:00,49.9,49.1,29.84,NNW,335,0.0,0.0,97,0.05,,,0.31,WeatherCatV2.41B14,2017-03-26 23:59:00,
2017-03-26 17:04:00,50.0,49.2,29.84,NNW,335,0.0,0.0,97,0.00,,,0.31,WeatherCatV2.41B14,2017-03-27 00:04:00,
2017-03-26 17:09:00,49.9,49.1,29.84,NNW,335,0.0,0.0,97,0.00,,,0.31,WeatherCatV2.41B14,2017-03-27 00:09:00,
2017-03-26 17:14:00,49.8,49.0,29.84,NNW,335,0.0,0.0,97,0.00,,,0.31,WeatherCatV2.41B14,2017-03-27 00:14:00,
2017-03-26 17:19:00,49.7,48.9,29.84,NNW,335,0.0,0.0,97,0.00,,,0.32,WeatherCatV2.41B14,2017-03-27 00:19:00,
2017-03-26 17:29:00,49.5,48.7,29.85,NNW,335,0.0,0.0,97,0.05,,,0.33,WeatherCatV2.41B14,2017-03-27 00:29:00,
2017-03-26 17:34:00,49.4,48.6,29.85,NNW,335,0.0,0.0,97,0.05,,,0.33,WeatherCatV2.41B14,2017-03-27 00:34:00,
2017-03-26 17:39:00,49.3,48.5,29.85,NNW,335,0.0,0.0,97,0.05,,,0.33,WeatherCatV2.41B14,2017-03-27 00:39:00,
2017-03-26 17:44:00,49.3,48.5,29.85,NNW,335,0.0,0.0,97,0.04,,,0.33,WeatherCatV2.41B14,2017-03-27 00:44:00,
2017-03-26 17:50:00,49.3,48.5,29.85,NNW,335,0.0,0.0,97,0.00,,,0.33,WeatherCatV2.41B14,2017-03-27 00:50:00,
2017-03-26 17:55:00,49.4,48.6,29.85,NNW,335,0.0,0.0,97,0.00,,,0.34,WeatherCatV2.41B14,2017-03-27 00:55:00,
2017-03-26 17:56:00,49.4,48.6,29.85,NNW,335,0.0,0.0,97,0.00,,,0.34,WeatherCatV2.41B14,2017-03-27 00:56:00,
2017-03-26 18:01:00,49.4,48.6,29.86,NNW,335,0.0,0.0,97,0.00,,,0.34,WeatherCatV2.41B14,2017-03-27 01:01:00,
2017-03-26 18:06:00,49.4,48.6,29.85,NNW,335,0.0,1.0,97,0.00,,,0.34,WeatherCatV2.41B14,2017-03-27 01:06:00,
2017-03-26 18:11:00,49.4,48.6,29.86,NNW,335,0.0,0.0,97,0.00,,,0.34,WeatherCatV2.41B14,2017-03-27 01:11:00,
2017-03-26 18:16:00,49.4,48.3,29.86,NNW,335,0.0,0.0,96,0.00,,,0.34,WeatherCatV2.41B14,2017-03-27 01:16:00,
2017-03-26 18:21:00,49.4,48.6,29.86,NNW,335,0.0,0.0,97,0.00,,,0.34,WeatherCatV2.41B14,2017-03-27 01:21:00,
2017-03-26 18:26:00,49.4,48.6,29.86,NNW,335,0.0,0.0,97,0.00,,,0.34,WeatherCatV2.41B14,2017-03-27 01:26:00,
2017-03-26 18:31:00,49.3,48.2,29.86,NNW,335,0.0,0.0,96,0.00,,,0.34,WeatherCatV2.41B14,2017-03-27 01:31:00,
2017-03-26 18:36:00,49.3,48.2,29.86,NNW,335,0.0,0.0,96,0.00,,,0.34,WeatherCatV2.41B14,2017-03-27 01:36:00,
2017-03-26 18:41:00,49.2,48.1,29.87,NNW,335,0.0,0.0,96,0.00,,,0.34,WeatherCatV2.41B14,2017-03-27 01:41:00,
2017-03-26 18:46:00,49.0,47.9,29.88,NNW,335,0.0,0.0,96,0.00,,,0.34,WeatherCatV2.41B14,2017-03-27 01:46:00,
2017-03-26 18:51:00,48.9,47.8,29.88,NNW,335,0.0,0.0,96,0.00,,,0.34,WeatherCatV2.41B14,2017-03-27 01:51:00,
2017-03-26 18:57:00,48.8,47.7,29.88,NNW,335,0.0,0.0,96,0.00,,,0.34,WeatherCatV2.41B14,2017-03-27 01:57:00,
2017-03-26 19:02:00,48.7,47.6,29.88,NNW,335,0.0,0.0,96,0.00,,,0.34,WeatherCatV2.41B14,2017-03-27 02:02:00,
2017-03-26 19:07:00,48.6,47.5,29.88,NNW,335,0.0,0.0,96,0.00,,,0.34,WeatherCatV2.41B14,2017-03-27 02:07:00,
2017-03-26 19:12:00,48.6,47.5,29.89,NNW,335,0.0,0.0,96,0.00,,,0.34,WeatherCatV2.41B14,2017-03-27 02:12:00,
2017-03-26 19:17:00,48.6,47.5,29.89,NNW,335,0.0,0.0,96,0.00,,,0.34,WeatherCatV2.41B14,2017-03-27 02:17:00,
2017-03-26 19:22:00,48.5,47.4,29.89,NNW,335,0.0,0.0,96,0.00,,,0.34,WeatherCatV2.41B14,2017-03-27 02:22:00,
2017-03-26 19:27:00,48.4,47.3,29.89,NNW,335,0.0,0.0,96,0.00,,,0.34,WeatherCatV2.41B14,2017-03-27 02:27:00,
2017-03-26 19:32:00,48.3,47.2,29.89,NNW,335,0.0,0.0,96,0.00,,,0.34,WeatherCatV2.41B14,2017-03-27 02:32:00,
2017-03-26 19:37:00,48.2,47.1,29.90,NNW,335,0.0,0.0,96,0.00,,,0.34,WeatherCatV2.41B14,2017-03-27 02:37:00,
2017-03-26 19:42:00,48.1,47.0,29.90,NNW,335,0.0,0.0,96,0.00,,,0.34,WeatherCatV2.41B14,2017-03-27 02:42:00,
2017-03-26 19:47:00,47.9,46.8,29.90,NNW,335,0.0,0.0,96,0.00,,,0.34,WeatherCatV2.41B14,2017-03-27 02:47:00,
2017-03-26 19:52:00,47.8,46.7,29.90,East,81,0.0,1.0,96,0.00,,,0.34,WeatherCatV2.41B14,2017-03-27 02:52:00,
2017-03-26 19:57:00,47.8,46.7,29.91,East,81,0.0,0.0,96,0.00,,,0.34,WeatherCatV2.41B14,2017-03-27 02:57:00,
2017-03-26 20:02:00,47.7,46.6,29.91,NE,55,0.0,0.0,96,0.00,,,0.34,WeatherCatV2.41B14,2017-03-27 03:02:00,
2017-03-26 20:07:00,47.6,46.5,29.91,NE,55,0.0,0.0,96,0.00,,,0.34,WeatherCatV2.41B14,2017-03-27 03:07:00,
2017-03-26 20:12:00,47.5,46.1,29.91,ESE,111,1.0,1.0,95,0.00,,,0.34,WeatherCatV2.41B14,2017-03-27 03:12:00,
2017-03-26 20:17:00,47.3,45.7,29.92,NE,50,0.0,1.0,94,0.00,,,0.34,WeatherCatV2.41B14,2017-03-27 03:17:00,
2017-03-26 20:22:00,47.2,45.6,29.92,ENE,68,0.0,0.0,94,0.00,,,0.34,WeatherCatV2.41B14,2017-03-27 03:22:00,
2017-03-26 20:27:00,47.0,45.6,29.92,ENE,68,0.0,0.0,95,0.00,,,0.34,WeatherCatV2.41B14,2017-03-27 03:27:00,
2017-03-26 20:32:00,46.9,45.5,29.93,ENE,68,0.0,0.0,95,0.00,,,0.34,WeatherCatV2.41B14,2017-03-27 03:32:00,
2017-03-26 20:37:00,46.8,45.4,29.93,ENE,68,0.0,1.0,95,0.00,,,0.34,WeatherCatV2.41B14,2017-03-27 03:37:00,
2017-03-26 20:43:00,46.6,45.2,29.93,ENE,68,0.0,0.0,95,0.00,,,0.34,WeatherCatV2.41B14,2017-03-27 03:43:00,
2017-03-26 20:48:00,46.5,45.4,29.93,ENE,68,0.0,0.0,96,0.00,,,0.34,WeatherCatV2.41B14,2017-03-27 03:48:00,
2017-03-26 20:53:00,46.4,45.3,29.93,ENE,68,0.0,0.0,96,0.00,,,0.34,WeatherCatV2.41B14,2017-03-27 03:53:00,
2017-03-26 20:58:00,46.3,45.2,29.94,ENE,68,0.0,0.0,96,0.00,,,0.34,WeatherCatV2.41B14,2017-03-27 03:58:00,
2017-03-26 21:03:00,46.3,45.2,29.94,ENE,68,0.0,0.0,96,0.00,,,0.34,WeatherCatV2.41B14,2017-03-27 04:03:00,
2017-03-26 21:08:00,46.2,45.1,29.94,ENE,68,0.0,0.0,96,0.00,,,0.34,WeatherCatV2.41B14,2017-03-27 04:08:00,
2017-03-26 21:13:00,46.1,45.0,29.94,ENE,68,0.0,0.0,96,0.00,,,0.34,WeatherCatV2.41B14,2017-03-27 04:13:00,
2017-03-26 21:18:00,46.0,44.9,29.95,ENE,68,0.0,0.0,96,0.00,,,0.34,WeatherCatV2.41B14,2017-03-27 04:18:00,
2017-03-26 21:23:00,46.0,44.9,29.95,ENE,68,0.0,0.0,96,0.00,,,0.34,WeatherCatV2.41B14,2017-03-27 04:23:00,
2017-03-26 21:28:00,45.9,45.1,29.95,ENE,68,0.0,0.0,97,0.00,,,0.34,WeatherCatV2.41B14,2017-03-27 04:28:00,
2017-03-26 21:33:00,45.9,45.1,29.95,ENE,68,0.0,0.0,97,0.00,,,0.34,WeatherCatV2.41B14,2017-03-27 04:33:00,
2017-03-26 21:38:00,45.8,44.7,29.95,ENE,68,0.0,0.0,96,0.00,,,0.34,WeatherCatV2.41B14,2017-03-27 04:38:00,
2017-03-26 21:43:00,45.7,44.6,29.95,ENE,68,0.0,0.0,96,0.00,,,0.34,WeatherCatV2.41B14,2017-03-27 04:43:00,
2017-03-26 21:48:00,45.7,44.6,29.96,ENE,68,0.0,0.0,96,0.00,,,0.34,WeatherCatV2.41B14,2017-03-27 04:48:00,
2017-03-26 21:53:00,45.6,44.5,29.96,ENE,68,0.0,0.0,96,0.00,,,0.34,WeatherCatV2.41B14,2017-03-27 04:53:00,
2017-03-26 21:58:00,45.6,44.5,29.96,ENE,68,0.0,0.0,96,0.00,,,0.34,WeatherCatV2.41B14,2017-03-27 04:58:00,
2017-03-26 22:03:00,45.6,44.5,29.96,ENE,68,0.0,0.0,96,0.00,,,0.34,WeatherCatV2.41B14,2017-03-27 05:03:00,
2017-03-26 22:08:00,45.5,44.4,29.96,ENE,68,0.0,0.0,96,0.00,,,0.34,WeatherCatV2.41B14,2017-03-27 05:08:00,
2017-03-26 22:09:00,45.5,44.4,29.96,ENE,68,0.0,0.0,96,0.00,,,0.34,WeatherCatV2.41B14,2017-03-27 05:09:00,
2017-03-26 22:14:00,45.4,44.3,29.96,ENE,68,0.0,0.0,96,0.00,,,0.34,WeatherCatV2.41B14,2017-03-27 05:14:00,
2017-03-26 22:19:00,45.2,44.1,29.96,ENE,68,0.0,0.0,96,0.00,,,0.34,WeatherCatV2.41B14,2017-03-27 05:19:00,
2017-03-26 22:24:00,45.1,44.0,29.96,ENE,68,0.0,0.0,96,0.00,,,0.34,WeatherCatV2.41B14,2017-03-27 05:24:00,
2017-03-26 22:29:00,45.1,44.0,29.96,ENE,68,0.0,0.0,96,0.00,,,0.34,WeatherCatV2.41B14,2017-03-27 05:29:00,
2017-03-26 22:34:00,45.1,44.0,29.96,ENE,68,0.0,0.0,96,0.00,,,0.34,WeatherCatV2.41B14,2017-03-27 05:34:00,
2017-03-26 22:39:00,45.0,43.9,29.96,ENE,68,0.0,0.0,96,0.00,,,0.34,WeatherCatV2.41B14,2017-03-27 05:39:00,
2017-03-26 22:44:00,44.9,43.8,29.97,ENE,68,0.0,0.0,96,0.00,,,0.34,WeatherCatV2.41B14,2017-03-27 05:44:00,
2017-03-26 22:49:00,44.9,43.8,29.96,ENE,68,0.0,0.0,96,0.00,,,0.34,WeatherCatV2.41B14,2017-03-27 05:49:00,